Corky — WDC3366 — position and weather

sailwx.info

Track history (hours):
 
Tides and Currents Weather Stations Pressure Air Temp Water Temp Dewpoint Dewpoint Depression Visibility Wind Speed Wind Dir Waves Ship Positions

Corky

Owner: Gulf South Marine Transportation, Inc., New Orleans, LA. More information available from US FCC via Universal Licensing System and Coast Guard Vessel Documentation Center.

Last reported at 2015-Aug-30 02:22 UTC. Time now 2015-Sep-01 06:00 UTC.
Position N 29°57' W 090°09'.

Length 18 m; draft 3.3 m.

Type: Tow > 200 m length. MMSI: 367006780.

Date/timePositionNaut miles runAvg speedWind from/ knotsBaromVisibWave heightAir tempDewpointWater temp
2015-Aug-30 02:22N 29°57' W 090°09'3 3.8
2015-Aug-30 01:33N 29°55' W 090°07'4 4.4
2015-Aug-30 00:31N 29°57' W 090°03'1 1.3
2015-Aug-29 23:27N 29°58' W 090°02'1 0.6
2015-Aug-29 22:23N 29°59' W 090°01'5 0.3
2015-Aug-29 04:13N 29°54' W 090°05'0 0.0
2015-Aug-29 01:31N 29°54' W 090°05'0 0.0
2015-Aug-28 22:23N 29°54' W 090°05'0 0.0
2015-Aug-28 21:33N 29°54' W 090°05'0 0.0
2015-Aug-28 20:30N 29°54' W 090°05'0 0.0
2015-Aug-28 19:31N 29°54' W 090°05'0 0.0
2015-Aug-28 17:30N 29°54' W 090°05'0 0.0
2015-Aug-27 14:10N 29°54' W 090°05'0 0.0
2015-Aug-26 11:03N 29°54' W 090°05'0 0.0
2015-Aug-26 10:28N 29°54' W 090°05'0 0.0
2015-Aug-26 09:26N 29°54' W 090°05'0 0.0
2015-Aug-26 08:33N 29°54' W 090°05'0 0.3
2015-Aug-26 07:30N 29°55' W 090°05'3 3.0
2015-Aug-26 06:33N 29°57' W 090°04'2 1.9
2015-Aug-26 05:30N 29°58' W 090°02'0 0.0
2015-Aug-26 04:33N 29°58' W 090°02'3 2.8
2015-Aug-26 03:32N 29°60' W 089°59'4 0.1
2015-Aug-24 22:27N 29°57' W 090°02'3 0.1
2015-Aug-23 20:19N 29°60' W 090°00'0 0.3
2015-Aug-23 19:27N 29°60' W 090°00'0 0.0
2015-Aug-23 17:24N 29°60' W 090°00'0 0.0
2015-Aug-23 16:30N 29°60' W 090°00'5 1.0
2015-Aug-23 11:18N 30°01' W 089°54'0 0.1
2015-Aug-23 10:27N 30°01' W 089°54'  
2015-Aug-20 09:14N 30°00' W 089°56'3 4.2
2015-Aug-20 08:32N 29°60' W 089°60'3 2.6
2015-Aug-20 07:33N 29°58' W 090°02'1 0.6
2015-Aug-20 06:33N 29°57' W 090°02'0 0.1
2015-Aug-20 05:32N 29°57' W 090°01'0 0.5
2015-Aug-20 04:33N 29°57' W 090°02'0 0.0
2015-Aug-20 03:32N 29°57' W 090°02'0 0.0
2015-Aug-20 02:31N 29°57' W 090°02'  
Track history (hours):
 
Tides and Currents Weather Stations Pressure Air Temp Water Temp Dewpoint Dewpoint Depression Visibility Wind Speed Wind Dir Waves Ship Positions

Corky

Owner: Gulf South Marine Transportation, Inc., New Orleans, LA. More information available from US FCC via Universal Licensing System and Coast Guard Vessel Documentation Center.

Last reported at 2015-Aug-30 02:22 UTC. Time now 2015-Sep-01 06:00 UTC.
Position N 29°57' W 090°09'.

Length 18 m; draft 3.3 m.

Type: Tow > 200 m length. MMSI: 367006780.

Date/timePositionNaut miles runAvg speedWind from/ knotsBaromVisibWave heightAir tempDewpointWater temp
2015-Aug-30 02:22N 29°57' W 090°09'3 3.8
2015-Aug-30 01:33N 29°55' W 090°07'4 4.4
2015-Aug-30 00:31N 29°57' W 090°03'1 1.3
2015-Aug-29 23:27N 29°58' W 090°02'1 0.6
2015-Aug-29 22:23N 29°59' W 090°01'5 0.3
2015-Aug-29 04:13N 29°54' W 090°05'0 0.0
2015-Aug-29 01:31N 29°54' W 090°05'0 0.0
2015-Aug-28 22:23N 29°54' W 090°05'0 0.0
2015-Aug-28 21:33N 29°54' W 090°05'0 0.0
2015-Aug-28 20:30N 29°54' W 090°05'0 0.0
2015-Aug-28 19:31N 29°54' W 090°05'0 0.0
2015-Aug-28 17:30N 29°54' W 090°05'0 0.0
2015-Aug-27 14:10N 29°54' W 090°05'0 0.0
2015-Aug-26 11:03N 29°54' W 090°05'0 0.0
2015-Aug-26 10:28N 29°54' W 090°05'0 0.0
2015-Aug-26 09:26N 29°54' W 090°05'0 0.0
2015-Aug-26 08:33N 29°54' W 090°05'0 0.3
2015-Aug-26 07:30N 29°55' W 090°05'3 3.0
2015-Aug-26 06:33N 29°57' W 090°04'2 1.9
2015-Aug-26 05:30N 29°58' W 090°02'0 0.0
2015-Aug-26 04:33N 29°58' W 090°02'3 2.8
2015-Aug-26 03:32N 29°60' W 089°59'4 0.1
2015-Aug-24 22:27N 29°57' W 090°02'3 0.1
2015-Aug-23 20:19N 29°60' W 090°00'0 0.3
2015-Aug-23 19:27N 29°60' W 090°00'0 0.0
2015-Aug-23 17:24N 29°60' W 090°00'0 0.0
2015-Aug-23 16:30N 29°60' W 090°00'5 1.0
2015-Aug-23 11:18N 30°01' W 089°54'0 0.1
2015-Aug-23 10:27N 30°01' W 089°54'  
2015-Aug-20 09:14N 30°00' W 089°56'3 4.2
2015-Aug-20 08:32N 29°60' W 089°60'3 2.6
2015-Aug-20 07:33N 29°58' W 090°02'1 0.6
2015-Aug-20 06:33N 29°57' W 090°02'0 0.1
2015-Aug-20 05:32N 29°57' W 090°01'0 0.5
2015-Aug-20 04:33N 29°57' W 090°02'0 0.0
2015-Aug-20 03:32N 29°57' W 090°02'0 0.0
2015-Aug-20 02:31N 29°57' W 090°02'  

Dump ship's entire track history